createdAt,value
2022-08-18T00:02:28.876Z,21.45
2022-08-18T00:05:36.092Z,18.27
2022-08-18T00:08:46.926Z,18.60
2022-08-18T00:11:52.069Z,21.25
2022-08-18T00:14:57.512Z,20.60
2022-08-18T00:18:02.601Z,17.35
2022-08-18T00:21:08.847Z,13.35
2022-08-18T00:24:16.465Z,17.17
2022-08-18T00:27:24.007Z,16.00
2022-08-18T00:30:34.519Z,12.13
2022-08-18T00:33:39.806Z,15.48
2022-08-18T00:36:44.851Z,15.93
2022-08-18T00:39:53.212Z,14.73
2022-08-18T00:42:59.663Z,21.10
2022-08-18T00:46:04.882Z,17.38
2022-08-18T00:49:10.121Z,18.63
2022-08-18T00:52:16.766Z,15.73
2022-08-18T00:55:25.236Z,16.08
2022-08-18T00:58:35.807Z,15.95
2022-08-18T01:01:42.381Z,20.17
2022-08-18T01:04:51.734Z,13.55
2022-08-18T01:07:57.132Z,20.38
2022-08-18T01:11:05.810Z,19.13
2022-08-18T01:14:11.773Z,18.65
2022-08-18T01:17:29.415Z,17.67
2022-08-18T01:20:50.205Z,13.18
2022-08-18T01:23:58.304Z,21.23
2022-08-18T01:27:00.942Z,13.90
2022-08-18T01:30:10.573Z,17.45
2022-08-18T01:33:15.665Z,17.55
2022-08-18T01:36:21.951Z,15.35
2022-08-18T01:41:25.812Z,12.45
2022-08-18T01:42:56.705Z,19.45
2022-08-18T01:46:04.398Z,15.70
2022-08-18T01:49:09.680Z,13.27
2022-08-18T01:52:19.750Z,14.70
2022-08-18T01:55:28.911Z,15.50
2022-08-18T01:58:33.895Z,14.98
2022-08-18T02:01:48.108Z,15.70
2022-08-18T02:04:55.100Z,13.50
2022-08-18T02:08:00.629Z,19.77
2022-08-18T02:11:09.254Z,14.95
2022-08-18T02:14:14.516Z,15.82
2022-08-18T02:17:20.441Z,13.23
2022-08-18T02:20:25.520Z,14.13
2022-08-18T02:23:30.953Z,15.73
2022-08-18T02:26:38.668Z,14.27
2022-08-18T02:29:44.255Z,12.98
2022-08-18T02:32:49.475Z,15.75
2022-08-18T02:35:56.835Z,18.35
2022-08-18T02:39:01.797Z,15.20
2022-08-18T02:42:10.191Z,16.33
2022-08-18T02:45:16.107Z,14.68
2022-08-18T02:48:22.125Z,15.50
2022-08-18T02:51:27.311Z,19.13
2022-08-18T02:54:32.467Z,25.40
2022-08-18T02:57:44.517Z,16.40
2022-08-18T03:00:50.162Z,14.63
2022-08-18T03:03:55.200Z,13.77
2022-08-18T03:07:02.567Z,16.50
2022-08-18T03:10:31.424Z,15.00
2022-08-18T03:13:36.235Z,15.38
2022-08-18T03:16:52.864Z,18.90
2022-08-18T03:20:01.022Z,22.60
2022-08-18T03:23:10.059Z,19.95
2022-08-18T03:26:16.510Z,22.35
2022-08-18T03:29:27.894Z,17.27
2022-08-18T03:32:37.016Z,19.73
2022-08-18T03:35:42.099Z,22.35
2022-08-18T03:38:50.935Z,27.67
2022-08-18T03:42:01.631Z,22.67
2022-08-18T03:45:13.422Z,31.67
2022-08-18T03:48:23.799Z,23.13
2022-08-18T03:51:30.394Z,24.88
2022-08-18T03:54:36.674Z,28.77
2022-08-18T03:57:41.811Z,27.00
2022-08-18T04:00:50.230Z,28.33
2022-08-18T04:07:04.896Z,28.45
2022-08-18T04:10:14.052Z,27.08
2022-08-18T04:13:24.944Z,30.08
2022-08-18T04:16:33.096Z,37.65
2022-08-18T04:19:38.284Z,47.83
2022-08-18T04:22:45.733Z,31.08
2022-08-18T04:25:58.890Z,30.88
2022-08-18T04:29:04.417Z,32.60
2022-08-18T04:32:12.347Z,29.48
2022-08-18T04:35:17.655Z,33.17
2022-08-18T04:38:23.432Z,32.33
2022-08-18T04:41:29.678Z,31.27
2022-08-18T04:44:34.684Z,38.50
2022-08-18T04:47:44.847Z,42.05
2022-08-18T04:50:50.392Z,47.90
2022-08-18T04:53:52.969Z,50.38
2022-08-18T04:56:58.210Z,58.88
2022-08-18T05:00:03.533Z,53.40
2022-08-18T05:03:11.338Z,56.03
2022-08-18T05:06:16.460Z,69.65
2022-08-18T05:09:23.075Z,66.75
2022-08-18T05:12:29.345Z,73.00
2022-08-18T05:15:47.153Z,92.80
2022-08-18T05:19:04.863Z,90.38
2022-08-18T05:22:18.345Z,100.95
2022-08-18T05:25:23.751Z,108.82
2022-08-18T05:28:29.498Z,105.00
2022-08-18T05:31:34.724Z,107.72
2022-08-18T05:34:42.557Z,125.90
2022-08-18T05:37:53.899Z,125.88
2022-08-18T05:41:13.732Z,138.15
2022-08-18T05:44:21.541Z,146.48
2022-08-18T05:47:27.990Z,169.57
2022-08-18T05:50:38.187Z,168.45
2022-08-18T05:53:56.433Z,175.77
2022-08-18T05:57:03.290Z,173.05
2022-08-18T06:00:10.801Z,163.57
2022-08-18T06:03:21.646Z,160.95
2022-08-18T06:06:30.541Z,153.73
2022-08-18T06:09:37.941Z,156.32
2022-08-18T06:12:47.148Z,151.83
2022-08-18T06:15:55.829Z,152.82
2022-08-18T06:19:04.176Z,158.40
2022-08-18T06:25:18.734Z,156.88
2022-08-18T06:28:24.153Z,158.82
2022-08-18T06:31:34.760Z,162.35
2022-08-18T06:34:45.155Z,157.32
2022-08-18T06:38:09.368Z,158.35
2022-08-18T06:41:41.698Z,156.45
2022-08-18T06:44:49.280Z,156.70
2022-08-18T06:47:59.875Z,147.45
2022-08-18T06:51:07.283Z,148.40
2022-08-18T06:54:28.294Z,141.75
2022-08-18T06:57:38.175Z,138.73
2022-08-18T07:00:49.110Z,135.43
2022-08-18T07:03:58.633Z,123.18
2022-08-18T07:07:14.969Z,124.88
2022-08-18T07:10:37.571Z,116.82
2022-08-18T07:13:46.110Z,110.32
2022-08-18T07:16:59.999Z,98.72
2022-08-18T07:20:08.970Z,103.15
2022-08-18T07:23:23.979Z,103.35
2022-08-18T07:26:29.391Z,86.78
2022-08-18T07:29:38.277Z,89.22
2022-08-18T07:32:47.679Z,89.03
2022-08-18T07:35:54.821Z,71.93
2022-08-18T07:39:03.653Z,73.28
2022-08-18T07:42:12.056Z,67.97
2022-08-18T07:45:24.595Z,53.58
2022-08-18T07:48:40.804Z,45.95
2022-08-18T07:51:53.096Z,38.75
2022-08-18T07:55:06.619Z,42.47
2022-08-18T07:58:22.687Z,31.35
2022-08-18T08:01:36.253Z,28.33
2022-08-18T08:04:43.310Z,29.05
2022-08-18T08:07:54.388Z,39.38
2022-08-18T08:11:06.447Z,29.50
2022-08-18T08:14:24.261Z,18.90
2022-08-18T08:17:36.891Z,20.48
2022-08-18T08:20:46.384Z,23.95
2022-08-18T08:23:59.134Z,26.38
2022-08-18T08:27:07.190Z,21.58
2022-08-18T08:33:23.647Z,16.73
2022-08-18T08:36:30.935Z,14.00
2022-08-18T08:39:39.492Z,15.70
2022-08-18T08:42:46.228Z,13.75
2022-08-18T08:45:55.102Z,18.05
2022-08-18T08:49:06.392Z,12.15
2022-08-18T08:52:18.786Z,12.00
2022-08-18T08:55:26.727Z,12.93
2022-08-18T08:58:34.594Z,11.20
2022-08-18T09:01:43.272Z,15.05
2022-08-18T09:05:09.154Z,17.40
2022-08-18T09:08:30.960Z,9.60
2022-08-18T09:11:49.724Z,12.73
2022-08-18T09:15:09.066Z,8.10
2022-08-18T09:18:20.845Z,17.80
2022-08-18T09:21:40.480Z,11.63
2022-08-18T09:24:51.149Z,15.98
2022-08-18T09:28:11.417Z,13.10
2022-08-18T09:31:20.085Z,7.93
2022-08-18T09:34:45.458Z,5.05
2022-08-18T09:38:09.275Z,9.95
2022-08-18T09:41:31.389Z,12.55
2022-08-18T09:44:51.988Z,12.52
2022-08-18T09:48:01.476Z,16.70
2022-08-18T09:51:23.675Z,11.80
2022-08-18T09:54:32.224Z,10.95
2022-08-18T09:57:43.870Z,16.13
2022-08-18T10:00:49.291Z,13.57
2022-08-18T10:07:44.196Z,8.07
2022-08-18T10:11:01.051Z,11.65
2022-08-18T10:14:21.907Z,14.02
2022-08-18T10:17:38.071Z,9.60
2022-08-18T10:20:52.464Z,14.07
2022-08-18T10:24:31.726Z,6.05
2022-08-18T10:27:50.259Z,15.82
2022-08-18T10:31:16.201Z,11.63
2022-08-18T10:34:39.832Z,11.43
2022-08-18T10:37:58.440Z,12.63
2022-08-18T10:44:37.949Z,18.10
2022-08-18T10:47:45.934Z,6.43
2022-08-18T10:50:55.981Z,12.60
2022-08-18T10:54:03.120Z,9.50
2022-08-18T10:57:11.400Z,7.10
2022-08-18T11:00:22.264Z,9.32
2022-08-18T11:03:56.006Z,11.25
2022-08-18T11:07:07.955Z,11.27
2022-08-18T11:10:32.222Z,13.02
2022-08-18T11:13:43.265Z,11.88
2022-08-18T11:16:56.025Z,10.77
2022-08-18T11:20:01.976Z,12.90
2022-08-18T11:23:14.922Z,13.82
2022-08-18T11:26:20.306Z,13.40
2022-08-18T11:29:34.479Z,8.95
2022-08-18T11:36:08.592Z,11.40
2022-08-18T11:39:15.266Z,5.93
2022-08-18T11:45:54.525Z,5.45
2022-08-18T11:49:04.480Z,9.35
2022-08-18T11:52:29.618Z,6.97
2022-08-18T11:55:39.192Z,8.02
2022-08-18T11:58:50.717Z,15.93
2022-08-18T12:01:57.431Z,12.00
2022-08-18T12:08:56.779Z,6.40
2022-08-18T12:11:55.586Z,7.75
2022-08-18T12:15:14.040Z,9.00
2022-08-18T12:18:28.606Z,14.02
2022-08-18T12:21:34.653Z,5.80
2022-08-18T12:24:43.366Z,9.25
2022-08-18T12:27:48.893Z,6.82
2022-08-18T12:30:56.215Z,13.57
2022-08-18T12:34:02.324Z,6.25
2022-08-18T12:37:34.052Z,7.33
2022-08-18T12:43:40.431Z,8.10
2022-08-18T12:46:48.478Z,15.43
2022-08-18T12:52:59.029Z,6.67
2022-08-18T12:56:04.708Z,19.52
2022-08-18T12:59:13.093Z,8.93
2022-08-18T13:02:18.587Z,11.70
2022-08-18T13:05:27.479Z,5.97
2022-08-18T13:08:47.914Z,14.98
2022-08-18T13:11:55.764Z,5.38
2022-08-18T13:15:08.881Z,8.73
2022-08-18T13:18:16.410Z,13.73
2022-08-18T13:21:22.671Z,10.07
2022-08-18T13:24:27.876Z,4.30
2022-08-18T13:27:35.406Z,7.33
2022-08-18T13:30:43.691Z,6.35
2022-08-18T13:33:57.506Z,9.43
2022-08-18T13:37:06.004Z,7.65
2022-08-18T13:40:12.644Z,4.32
2022-08-18T13:43:18.688Z,5.05
2022-08-18T13:46:30.890Z,8.02
2022-08-18T13:49:36.516Z,7.20
2022-08-18T13:52:44.712Z,6.90
2022-08-18T13:55:49.793Z,9.07
2022-08-18T13:58:55.054Z,5.63
2022-08-18T14:02:03.686Z,5.05
2022-08-18T14:05:10.396Z,11.90
2022-08-18T14:08:19.081Z,8.50
2022-08-18T14:11:27.760Z,13.85
2022-08-18T14:14:38.469Z,12.98
2022-08-18T14:17:46.321Z,8.43
2022-08-18T14:21:06.233Z,12.00
2022-08-18T14:24:26.640Z,4.00
2022-08-18T14:27:35.209Z,6.90
2022-08-18T14:30:40.972Z,8.02
2022-08-18T14:34:03.897Z,17.60
2022-08-18T14:37:09.822Z,5.90
2022-08-18T14:40:17.579Z,16.65
2022-08-18T14:43:25.022Z,8.30
2022-08-18T14:46:32.794Z,9.25
2022-08-18T14:49:47.826Z,10.95
2022-08-18T14:52:53.389Z,18.92
2022-08-18T14:55:59.551Z,13.05
2022-08-18T14:59:05.569Z,10.00
2022-08-18T15:02:13.461Z,18.85
2022-08-18T15:05:24.407Z,12.13
2022-08-18T15:08:30.242Z,4.43
2022-08-18T15:11:38.141Z,5.95
2022-08-18T15:14:43.554Z,7.97
2022-08-18T15:17:50.500Z,22.05
2022-08-18T15:21:35.760Z,8.32
2022-08-18T15:24:54.501Z,11.68
2022-08-18T15:28:00.780Z,8.23
2022-08-18T15:34:31.204Z,8.80
2022-08-18T15:37:43.556Z,8.35
2022-08-18T15:40:51.618Z,7.53
2022-08-18T15:44:02.829Z,11.70
2022-08-18T15:47:09.512Z,11.07
2022-08-18T15:53:30.435Z,14.95
2022-08-18T15:56:37.132Z,14.23
2022-08-18T15:59:49.146Z,13.48
2022-08-18T16:02:57.688Z,11.18
2022-08-18T16:06:03.087Z,18.70
2022-08-18T16:09:11.000Z,31.50
2022-08-18T16:12:16.084Z,20.92
2022-08-18T16:15:23.012Z,10.63
2022-08-18T16:18:29.739Z,14.70
2022-08-18T16:21:36.413Z,13.23
2022-08-18T16:24:44.396Z,20.42
2022-08-18T16:27:55.619Z,16.90
2022-08-18T16:31:00.950Z,13.93
2022-08-18T16:34:06.255Z,15.23
2022-08-18T16:37:12.357Z,11.25
2022-08-18T16:40:20.838Z,17.52
2022-08-18T16:43:27.513Z,12.27
2022-08-18T16:46:32.489Z,14.23
2022-08-18T16:49:38.035Z,8.77
2022-08-18T16:52:43.569Z,11.75
2022-08-18T16:55:51.424Z,10.93
2022-08-18T16:59:09.393Z,14.73
2022-08-18T17:02:26.863Z,9.32
2022-08-18T17:05:34.841Z,13.75
2022-08-18T17:08:40.073Z,14.97
2022-08-18T17:11:51.390Z,12.63
2022-08-18T17:14:57.365Z,14.90
2022-08-18T17:18:03.393Z,12.48
2022-08-18T17:21:09.422Z,9.15
2022-08-18T17:24:14.883Z,13.90
2022-08-18T17:27:37.409Z,7.93
2022-08-18T17:30:46.430Z,10.45
2022-08-18T17:33:52.009Z,15.55
2022-08-18T17:36:58.949Z,11.23
2022-08-18T17:40:08.261Z,13.30
2022-08-18T17:43:18.113Z,18.13
2022-08-18T17:46:27.680Z,12.75
2022-08-18T17:49:47.205Z,13.55
2022-08-18T17:52:56.159Z,11.13
2022-08-18T17:56:03.017Z,11.23
2022-08-18T17:59:46.476Z,14.68
2022-08-18T18:02:39.779Z,14.25
2022-08-18T18:05:46.019Z,13.00
2022-08-18T18:08:52.699Z,14.68
2022-08-18T18:11:57.690Z,11.90
2022-08-18T18:15:06.349Z,13.77
2022-08-18T18:18:25.436Z,14.07
2022-08-18T18:21:58.915Z,9.25
2022-08-18T18:24:56.849Z,16.15
2022-08-18T18:28:02.003Z,12.65
2022-08-18T18:31:25.346Z,13.43
2022-08-18T18:34:35.014Z,9.73
2022-08-18T18:37:44.007Z,11.45
2022-08-18T18:40:57.456Z,8.75
2022-08-18T18:44:09.681Z,7.70
2022-08-18T18:47:26.611Z,11.30
2022-08-18T18:50:35.718Z,17.40
2022-08-18T18:53:46.674Z,6.82
2022-08-18T18:56:53.783Z,10.18
2022-08-18T19:00:02.804Z,9.03
2022-08-18T19:03:13.760Z,8.23
2022-08-18T19:06:28.924Z,11.20
2022-08-18T19:09:36.698Z,6.50
2022-08-18T19:12:46.728Z,6.72
2022-08-18T19:15:52.423Z,7.90
2022-08-18T19:19:35.447Z,7.90
2022-08-18T19:22:30.600Z,10.48
2022-08-18T19:25:38.244Z,13.40
2022-08-18T19:29:12.058Z,12.33
2022-08-18T19:32:16.843Z,14.45
2022-08-18T19:35:25.948Z,12.75
2022-08-18T19:38:45.090Z,11.98
2022-08-18T19:41:59.098Z,15.20
2022-08-18T19:45:16.784Z,16.17
2022-08-18T19:48:26.426Z,21.65
2022-08-18T19:51:35.582Z,18.63
2022-08-18T19:54:47.806Z,15.73
2022-08-18T19:57:59.332Z,15.38
2022-08-18T20:01:05.173Z,15.10
2022-08-18T20:04:22.353Z,18.42
2022-08-18T20:07:46.919Z,16.98
2022-08-18T20:11:04.534Z,15.85
2022-08-18T20:14:12.997Z,18.52
2022-08-18T20:17:19.929Z,13.50
2022-08-18T20:20:25.573Z,14.65
2022-08-18T20:23:34.629Z,16.08
2022-08-18T20:26:50.098Z,20.83
2022-08-18T20:30:04.221Z,14.52
2022-08-18T20:33:20.880Z,15.52
2022-08-18T20:36:29.693Z,14.27
2022-08-18T20:39:45.463Z,21.05
2022-08-18T20:42:56.322Z,15.23
2022-08-18T20:46:19.805Z,15.85
2022-08-18T20:49:34.337Z,16.05
2022-08-18T20:52:43.407Z,24.35
2022-08-18T20:55:53.246Z,20.40
2022-08-18T20:59:08.975Z,12.00
2022-08-18T21:02:27.669Z,15.82
2022-08-18T21:05:35.414Z,16.13
2022-08-18T21:08:42.065Z,11.90
2022-08-18T21:11:48.573Z,13.98
2022-08-18T21:15:00.203Z,12.70
2022-08-18T21:18:06.064Z,14.38
2022-08-18T21:21:27.468Z,18.08
2022-08-18T21:24:33.970Z,18.92
2022-08-18T21:27:40.637Z,14.93
2022-08-18T21:31:41.860Z,13.48
2022-08-18T21:34:33.627Z,14.65
2022-08-18T21:37:43.875Z,11.73
2022-08-18T21:40:50.325Z,11.98
2022-08-18T21:43:58.645Z,13.68
2022-08-18T21:47:10.844Z,11.45
2022-08-18T21:50:18.268Z,13.40
2022-08-18T21:53:25.558Z,13.63
2022-08-18T21:56:35.897Z,8.35
2022-08-18T22:00:01.398Z,10.60
2022-08-18T22:03:17.198Z,11.23
2022-08-18T22:06:25.560Z,14.82
2022-08-18T22:09:44.462Z,10.77
2022-08-18T22:13:07.013Z,13.95
2022-08-18T22:16:26.150Z,14.85
2022-08-18T22:19:33.876Z,13.05
2022-08-18T22:22:51.391Z,12.32
2022-08-18T22:25:56.654Z,11.95
2022-08-18T22:29:06.241Z,14.13
2022-08-18T22:32:11.436Z,14.18
2022-08-18T22:35:19.102Z,15.85
2022-08-18T22:38:24.458Z,14.43
2022-08-18T22:41:29.666Z,26.90
2022-08-18T22:44:35.405Z,18.35
2022-08-18T22:47:43.649Z,10.73
2022-08-18T22:50:53.137Z,12.82
2022-08-18T22:53:59.410Z,10.63
2022-08-18T22:57:04.614Z,13.77
2022-08-18T23:00:14.649Z,13.32
2022-08-18T23:03:20.013Z,12.07
2022-08-18T23:06:28.757Z,10.07
2022-08-18T23:09:35.036Z,11.23
2022-08-18T23:12:40.477Z,11.57
2022-08-18T23:15:48.752Z,10.20
2022-08-18T23:18:53.989Z,9.93
2022-08-18T23:22:02.073Z,9.60
2022-08-18T23:28:16.032Z,9.55
2022-08-18T23:31:21.394Z,12.07
2022-08-18T23:34:27.663Z,11.40
2022-08-18T23:37:35.572Z,11.38
2022-08-18T23:40:41.100Z,7.72
2022-08-18T23:43:48.302Z,7.68
2022-08-18T23:46:54.017Z,11.70
2022-08-18T23:49:59.375Z,10.38
2022-08-18T23:53:07.152Z,10.70
2022-08-18T23:56:12.394Z,14.23
2022-08-18T23:59:18.305Z,9.82
